Huvudsida
METAR-TAF:

METAR-TAF

Flygplatser :

Seinäjoki flygplats

Seinäjoki-Ilmola, Finland

latitud: 62-41-37N, longitud: 022-49-55E, höjd: 91 m

Aktuellt väderrapport

Denna rapport gjordes för 13 timmar och 50 minuter sedan, klockan 03:50 UTC
Vind 11 kt från syd i byarna ända upp till 22 kt, varierande mellan ost/sydost och väst/sydväst
Temperatur 14°C
Fuktighet 77%
Tryck 987 hPa
Sikt 10 km eller mer
lätta regnskurar

METAR: EFSI 220350Z AUTO 19011G22KT 120V240 9999 -SHRA ////// 14/10 Q0987

Tid: 20:40 (17:40 UTC)


TAF: saknas

Aktuella väderrapporter och prognoser från 4000 flygplatser (METAR- och TAF-rapporter).

De tillgängliga stationerna syns som gula och röda prickar på kartan.

För musen över prickarna för att se namnen på stationerna.

Klicka sedan för att få väderrapporter och prognoser.

För att ändra kartan: Klicka på de gröna knapparna med ett svart kors på för att zooma in; den gröna knappen med ett streck på för att zooma ut; eller på de gröna pilarna för angränsande kartor.


METAR-TAF: